Time;durP1;ratioP1;P1;durP2;ratioP2;P2;SDS_P1;SDS_P2;PMS_P1;PMS_P2;Temp;Humidity;BMP_temperature;BMP_pressure;BME280_temperature;BME280_humidity;BME280_pressure;Samples;Min_cycle;Max_cycle;Signal;HPM_P1;HPM_P2
2023/01/13 00:02:06;;;;;;;4.33;4.03;;;;;;;8.65;79.02;99848.28;5053499;28;20201;-74
2023/01/13 00:04:32;;;;;;;4.77;3.80;;;;;;;8.63;78.94;99845.00;5053491;28;20256;-75
2023/01/13 00:06:59;;;;;;;3.73;3.53;;;;;;;8.68;79.19;99847.94;5052273;28;20671;-77
2023/01/13 00:09:26;;;;;;;4.03;3.73;;;;;;;8.65;78.69;99849.09;5053418;28;20196;-75
2023/01/13 00:11:55;;;;;;;3.90;3.70;;;;;;;8.65;78.10;99848.28;5053743;28;20278;-75
2023/01/13 00:14:21;;;;;;;3.93;3.67;;;;;;;8.67;78.00;99851.59;5053336;28;20197;-75
2023/01/13 00:16:48;;;;;;;3.70;3.50;;;;;;;8.47;77.62;99850.38;5050397;28;20184;-74
2023/01/13 00:19:15;;;;;;;3.70;3.50;;;;;;;8.53;78.18;99850.50;5033571;28;20209;-75
2023/01/13 00:21:42;;;;;;;3.90;3.70;;;;;;;8.44;78.31;99838.31;5048196;28;20249;-75
2023/01/13 00:24:10;;;;;;;4.10;3.80;;;;;;;8.49;78.83;99845.75;5053911;28;20282;-75
2023/01/13 00:26:37;;;;;;;4.47;4.17;;;;;;;8.43;78.81;99849.06;5052920;28;20686;-75
2023/01/13 00:29:05;;;;;;;4.60;4.30;;;;;;;8.47;78.73;99837.13;5051973;28;20680;-75
2023/01/13 00:31:31;;;;;;;4.27;3.97;;;;;;;8.49;78.33;99837.81;5034458;28;20221;-75
2023/01/13 00:34:00;;;;;;;4.03;3.73;;;;;;;8.51;77.67;99841.09;5032816;28;20223;-76
2023/01/13 00:36:27;;;;;;;4.80;4.17;;;;;;;8.40;77.33;99850.25;5036485;28;20254;-76
2023/01/13 00:38:54;;;;;;;4.00;3.60;;;;;;;8.34;77.60;99839.53;5052992;28;20219;-74
2023/01/13 00:41:23;;;;;;;3.70;3.50;;;;;;;8.31;77.78;99851.28;5051969;28;20622;-73
2023/01/13 00:43:49;;;;;;;3.60;3.40;;;;;;;8.37;77.67;99845.28;5041633;28;20246;-75
2023/01/13 00:46:19;;;;;;;4.03;3.83;;;;;;;8.50;77.32;99839.44;5052996;28;20204;-75
2023/01/13 00:48:46;;;;;;;4.03;3.73;;;;;;;8.62;77.10;99848.66;5052670;28;20618;-74
2023/01/13 00:51:15;;;;;;;3.87;3.60;;;;;;;8.70;76.60;99845.94;5053382;28;20217;-74
2023/01/13 00:53:45;;;;;;;4.10;3.80;;;;;;;8.67;76.64;99841.00;5051959;28;20195;-74
2023/01/13 00:56:15;;;;;;;3.90;3.67;;;;;;;8.65;76.37;99848.28;5052578;28;20188;-76
2023/01/13 00:58:43;;;;;;;4.00;3.70;;;;;;;8.58;76.91;99847.34;5051897;28;20196;-76
2023/01/13 01:01:12;;;;;;;3.57;3.37;;;;;;;8.57;77.11;99843.03;5052387;28;20207;-75
2023/01/13 01:03:41;;;;;;;4.50;4.20;;;;;;;8.65;76.84;99842.97;5052567;28;20197;-74
2023/01/13 01:06:11;;;;;;;4.10;3.90;;;;;;;8.62;76.10;99835.41;5040820;28;20247;-74
2023/01/13 01:08:37;;;;;;;4.07;3.77;;;;;;;8.64;76.66;99836.03;5032382;28;20649;-74
2023/01/13 01:11:06;;;;;;;4.27;3.97;;;;;;;8.44;77.32;99834.84;5032552;28;20224;-76
2023/01/13 01:13:33;;;;;;;4.50;4.10;;;;;;;8.51;78.09;99839.28;5035577;28;20192;-75
2023/01/13 01:16:03;;;;;;;4.40;4.10;;;;;;;8.55;76.82;99832.63;5052095;28;20204;-75
2023/01/13 01:18:29;;;;;;;3.80;3.60;;;;;;;8.54;76.77;99828.31;5039204;28;20200;-75
2023/01/13 01:21:00;;;;;;;3.83;3.53;;;;;;;8.58;76.38;99834.09;5032192;28;20229;-75
2023/01/13 01:23:28;;;;;;;3.67;3.37;;;;;;;8.65;76.17;99832.38;5032201;28;20232;-75
2023/01/13 01:25:55;;;;;;;3.60;3.40;;;;;;;8.54;76.71;99835.44;5033022;28;20197;-75
2023/01/13 01:28:21;;;;;;;3.90;3.70;;;;;;;8.53;76.14;99839.09;5032349;28;20250;-76
2023/01/13 01:30:48;;;;;;;3.50;3.30;;;;;;;8.38;77.30;99832.91;5031548;28;20217;-75
2023/01/13 01:33:15;;;;;;;4.07;3.77;;;;;;;8.49;76.32;99838.59;5032213;28;20193;-75
2023/01/13 01:35:42;;;;;;;3.80;3.60;;;;;;;8.44;76.72;99829.53;5045022;28;20197;-75
2023/01/13 01:38:10;;;;;;;4.07;3.80;;;;;;;8.37;76.22;99831.25;5046634;28;20593;-74
2023/01/13 01:40:37;;;;;;;3.73;3.37;;;;;;;8.27;77.72;99831.47;5032258;28;20189;-74
2023/01/13 01:45:57;;;;;;;3.10;2.90;;;;;;;8.08;77.58;99829.19;5032048;28;20566;-74
2023/01/13 01:48:23;;;;;;;3.67;3.43;;;;;;;8.08;79.05;99820.44;5031755;28;20660;-75
2023/01/13 01:50:51;;;;;;;3.93;3.63;;;;;;;8.10;78.13;99821.09;5036342;28;20243;-75
2023/01/13 01:53:24;;;;;;;4.57;3.63;;;;;;;8.10;77.39;99823.72;5052579;28;20254;-76
2023/01/13 01:55:51;;;;;;;3.77;3.57;;;;;;;8.07;78.31;99821.44;5051578;28;20180;-76
2023/01/13 01:58:22;;;;;;;3.73;3.53;;;;;;;8.06;78.40;99811.84;5051622;28;20667;-76
2023/01/13 02:00:49;;;;;;;3.93;3.70;;;;;;;8.10;77.87;99819.28;5050942;28;20189;-76
2023/01/13 02:03:17;;;;;;;3.63;2.90;;;;;;;8.09;77.84;99824.75;5051583;28;20197;-76
2023/01/13 02:05:44;;;;;;;3.60;3.40;;;;;;;8.10;77.69;99816.63;5051665;28;20656;-76
2023/01/13 02:08:13;;;;;;;3.40;3.20;;;;;;;8.07;78.77;99826.72;5051538;28;20627;-76
2023/01/13 02:10:45;;;;;;;3.87;3.60;;;;;;;8.07;78.14;99822.25;5051143;28;20657;-74
2023/01/13 02:13:12;;;;;;;4.17;3.60;;;;;;;8.12;78.84;99835.78;5050569;28;20208;-74
2023/01/13 02:15:48;;;;;;;3.77;3.57;;;;;;;7.97;78.70;99821.63;5033979;28;20197;-74
2023/01/13 02:18:28;;;;;;;3.80;3.60;;;;;;;7.96;78.82;99830.56;5031492;28;20255;-75
2023/01/13 02:21:05;;;;;;;3.57;3.37;;;;;;;7.91;78.42;99826.78;5031700;28;20181;-75
2023/01/13 02:27:41;;;;;;;3.57;3.37;;;;;;;7.91;79.30;99829.41;5031668;28;20189;-75
2023/01/13 02:33:17;;;;;;;4.20;3.90;;;;;;;7.88;79.44;99835.06;5051502;28;20307;-74
2023/01/13 02:35:50;;;;;;;3.67;3.47;;;;;;;7.90;79.79;99830.41;5051293;28;20627;-74
2023/01/13 02:38:23;;;;;;;4.60;3.53;;;;;;;7.91;78.51;99837.34;5042569;28;20189;-74
2023/01/13 02:40:58;;;;;;;3.80;3.60;;;;;;;7.94;78.98;99839.66;5051669;28;20191;-73
2023/01/13 02:46:25;;;;;;;3.60;3.37;;;;;;;7.95;80.13;99843.94;5055126;28;20236;-73
2023/01/13 02:48:54;;;;;;;3.70;3.50;;;;;;;7.91;79.21;99853.22;5050643;28;20253;-73
2023/01/13 02:51:25;;;;;;;4.03;3.83;;;;;;;7.92;80.10;99849.59;5055076;28;20220;-74
2023/01/13 02:53:59;;;;;;;3.43;3.23;;;;;;;7.82;80.08;99847.16;5055526;28;20632;-74
2023/01/13 02:56:27;;;;;;;3.50;3.30;;;;;;;7.73;80.14;99852.63;5053471;28;20181;-73
2023/01/13 02:58:56;;;;;;;4.03;3.83;;;;;;;7.73;80.40;99844.69;5034745;28;20255;-74
2023/01/13 03:01:24;;;;;;;3.53;3.33;;;;;;;7.73;80.69;99855.28;5034769;28;20200;-74
2023/01/13 03:03:51;;;;;;;3.90;3.70;;;;;;;7.70;80.39;99847.66;5034931;28;20197;-73
2023/01/13 03:06:36;;;;;;;3.60;3.50;;;;;;;7.61;80.45;99846.88;5048980;28;20281;-74
2023/01/13 03:09:11;;;;;;;3.63;3.43;;;;;;;7.55;81.09;99842.25;5054493;28;20276;-73
2023/01/13 03:11:45;;;;;;;4.53;4.03;;;;;;;7.49;81.21;99845.56;5054825;28;20203;-73
2023/01/13 03:14:23;;;;;;;4.40;4.13;;;;;;;7.44;81.44;99839.13;5054441;28;20192;-73
2023/01/13 03:17:06;;;;;;;4.10;3.80;;;;;;;7.40;81.56;99848.38;5054449;28;20191;-74
2023/01/13 03:19:42;;;;;;;3.83;3.53;;;;;;;7.36;82.18;99842.63;5053499;28;20275;-73
2023/01/13 03:22:17;;;;;;;4.00;3.70;;;;;;;7.33;82.38;99842.13;5054293;28;20280;-73
2023/01/13 03:24:50;;;;;;;4.30;4.10;;;;;;;7.27;82.37;99848.09;5054988;28;20281;-74
2023/01/13 03:27:24;;;;;;;4.10;3.83;;;;;;;7.26;82.12;99843.78;5052438;28;20730;-74
2023/01/13 03:29:57;;;;;;;4.53;4.23;;;;;;;7.30;82.74;99847.72;5049177;28;20245;-74
2023/01/13 03:32:30;;;;;;;4.60;4.30;;;;;;;7.24;83.00;99846.59;5034445;28;20671;-74
2023/01/13 03:35:03;;;;;;;4.00;3.80;;;;;;;7.29;82.80;99840.78;5034389;28;20613;-74
2023/01/13 03:37:35;;;;;;;4.00;3.80;;;;;;;7.36;82.58;99839.97;5035081;28;20244;-73
2023/01/13 03:40:07;;;;;;;4.93;4.47;;;;;;;7.33;82.79;99848.25;5034492;28;20267;-74
2023/01/13 03:42:38;;;;;;;4.00;3.80;;;;;;;7.33;82.73;99842.13;5044482;28;20261;-74
2023/01/13 03:45:09;;;;;;;3.60;3.40;;;;;;;7.40;82.36;99848.38;5054149;28;20197;-74
2023/01/13 03:47:41;;;;;;;3.70;3.50;;;;;;;7.34;82.66;99849.03;5048832;28;20563;-73
2023/01/13 03:50:12;;;;;;;4.50;4.30;;;;;;;7.41;81.73;99850.03;5053772;28;20194;-73
2023/01/13 03:52:44;;;;;;;3.80;3.47;;;;;;;7.47;81.54;99854.66;5051282;28;20262;-74
2023/01/13 03:55:14;;;;;;;3.90;3.70;;;;;;;7.43;81.70;99858.63;5054026;28;20230;-74
2023/01/13 03:57:47;;;;;;;4.00;3.70;;;;;;;7.50;81.31;99854.31;5053633;28;20193;-76
2023/01/13 04:00:15;;;;;;;3.90;3.70;;;;;;;7.59;81.82;99858.63;5048328;28;20200;-74
2023/01/13 04:02:54;;;;;;;3.90;3.70;;;;;;;7.59;81.17;99858.63;5033736;28;20263;-73
2023/01/13 04:05:21;;;;;;;5.70;3.97;;;;;;;7.53;80.84;99864.56;5054046;28;20190;-74
2023/01/13 04:07:54;;;;;;;3.70;3.50;;;;;;;7.53;81.30;99869.84;5054578;28;20259;-74
2023/01/13 04:10:28;;;;;;;3.90;3.70;;;;;;;7.45;81.03;99867.22;5052819;28;20243;-74
2023/01/13 04:13:02;;;;;;;3.90;3.60;;;;;;;7.40;81.39;99864.25;5053656;28;20254;-74
2023/01/13 04:15:33;;;;;;;3.80;3.50;;;;;;;7.49;81.57;99869.38;5054012;28;20196;-73
2023/01/13 04:18:13;;;;;;;3.63;3.43;;;;;;;7.56;81.43;99874.81;5053918;28;20185;-74
2023/01/13 04:20:41;;;;;;;3.83;3.63;;;;;;;7.58;81.08;99872.81;5052839;28;20196;-74
2023/01/13 04:23:08;;;;;;;3.60;3.40;;;;;;;7.61;81.54;99867.19;5052043;28;20689;-74
2023/01/13 04:25:35;;;;;;;4.00;3.60;;;;;;;7.57;81.26;99869.34;5053017;28;20193;-73
2023/01/13 04:28:02;;;;;;;3.60;3.40;;;;;;;7.68;80.87;99879.56;5053335;28;20199;-74
2023/01/13 04:30:29;;;;;;;3.60;3.40;;;;;;;7.76;80.48;99876.91;5042738;28;20201;-73
2023/01/13 04:32:55;;;;;;;10.23;3.70;;;;;;;7.88;80.73;99880.03;5033270;28;20224;-74
2023/01/13 04:35:24;;;;;;;4.17;3.73;;;;;;;7.92;80.45;99865.47;5033159;28;20282;-73
2023/01/13 04:37:51;;;;;;;4.07;3.17;;;;;;;8.03;79.70;99881.78;5034055;28;20204;-74
2023/01/13 04:40:18;;;;;;;4.20;3.80;;;;;;;8.05;79.64;99885.09;5036564;28;20200;-76
2023/01/13 04:42:45;;;;;;;3.73;3.40;;;;;;;8.10;79.23;99882.78;5052879;28;20201;-76
2023/01/13 04:45:12;;;;;;;3.40;3.20;;;;;;;8.10;79.78;99896.00;5052646;28;20196;-74
2023/01/13 04:47:39;;;;;;;3.63;3.33;;;;;;;8.15;79.19;99898.13;5051789;28;20733;-77
2023/01/13 04:50:06;;;;;;;3.23;3.03;;;;;;;8.09;79.00;99893.53;5052652;28;20588;-73
2023/01/13 04:52:34;;;;;;;3.47;3.23;;;;;;;8.12;79.40;99893.16;5053780;28;20256;-74
2023/01/13 04:55:01;;;;;;;3.23;3.00;;;;;;;8.16;78.51;99895.31;5052442;28;20744;-74
2023/01/13 04:57:27;;;;;;;3.57;3.37;;;;;;;8.09;78.72;99888.22;5052154;28;20192;-74
2023/01/13 04:59:54;;;;;;;5.33;3.87;;;;;;;8.15;78.93;99892.81;5051716;28;20242;-74
2023/01/13 05:02:21;;;;;;;3.80;3.50;;;;;;;8.09;79.76;99885.59;5052337;28;20208;-73
2023/01/13 05:04:48;;;;;;;3.90;3.50;;;;;;;8.16;79.42;99899.75;5052034;28;20189;-73
2023/01/13 05:07:16;;;;;;;8.73;5.23;;;;;;;8.13;79.68;99894.84;5048192;28;20193;-73
2023/01/13 05:09:44;;;;;;;5.07;4.10;;;;;;;7.95;79.31;99873.03;5032294;28;20200;-73
2023/01/13 05:17:40;;;;;;;8.40;3.77;;;;;;;8.12;79.05;99898.44;5051653;28;20192;-73
2023/01/13 05:20:09;;;;;;;11.13;3.60;;;;;;;8.08;78.57;99891.88;5053075;28;20562;-73
2023/01/13 05:25:21;;;;;;;10.40;4.03;;;;;;;8.25;79.31;99910.19;5052226;28;20262;-72
2023/01/13 05:27:48;;;;;;;5.40;4.27;;;;;;;8.33;78.87;99917.28;5051931;28;20192;-72
2023/01/13 05:30:15;;;;;;;14.17;4.33;;;;;;;8.32;78.48;99911.16;5041546;28;20193;-70
2023/01/13 05:32:42;;;;;;;4.00;3.70;;;;;;;8.35;78.32;99917.94;5032258;28;20271;-71
2023/01/13 05:35:09;;;;;;;7.20;3.50;;;;;;;8.41;77.71;99919.91;5049061;28;20245;-74
2023/01/13 05:37:36;;;;;;;9.77;3.67;;;;;;;8.39;77.74;99920.06;5051894;28;20196;-73
2023/01/13 05:45:45;;;;;;;3.87;3.67;;;;;;;8.36;77.89;99917.75;5052070;28;20191;-71
2023/01/13 05:48:12;;;;;;;4.10;3.80;;;;;;;8.36;77.33;99924.84;5052106;28;20261;-72
2023/01/13 05:50:38;;;;;;;3.70;3.40;;;;;;;8.34;77.46;99924.22;5041102;28;20227;-72
2023/01/13 05:53:05;;;;;;;4.30;3.50;;;;;;;8.37;77.28;99924.69;5031640;28;20274;-72
2023/01/13 05:55:32;;;;;;;14.43;4.10;;;;;;;8.40;76.99;99929.66;5032008;28;20193;-71
2023/01/13 05:58:00;;;;;;;21.97;4.57;;;;;;;8.39;76.94;99927.16;5037728;28;20201;-71
2023/01/13 06:00:27;;;;;;;9.27;3.30;;;;;;;8.44;76.55;99932.78;5040460;28;20196;-73
2023/01/13 06:02:53;;;;;;;25.60;4.37;;;;;;;8.50;75.74;99930.25;5041518;28;20259;-72
2023/01/13 06:05:20;;;;;;;18.77;4.37;;;;;;;8.52;76.23;99940.69;5040109;28;20201;-72
2023/01/13 06:07:47;;;;;;;21.30;5.07;;;;;;;8.50;76.18;99942.69;5036369;28;20197;-72
2023/01/13 06:10:13;;;;;;;5.90;3.90;;;;;;;8.52;75.78;99943.31;5042074;28;20234;-72
2023/01/13 06:12:40;;;;;;;10.17;4.37;;;;;;;8.59;75.80;99945.13;5050775;28;20216;-73
2023/01/13 06:15:09;;;;;;;32.30;5.57;;;;;;;8.55;76.19;99943.00;5051273;28;20664;-73
2023/01/13 06:17:36;;;;;;;10.33;4.20;;;;;;;8.64;76.07;99952.53;5054340;28;20329;-74
2023/01/13 06:20:02;;;;;;;4.80;4.03;;;;;;;8.64;76.01;99952.53;5055025;28;20192;-71
2023/01/13 06:22:31;;;;;;;14.83;5.40;;;;;;;8.73;76.19;99956.81;5053472;28;20246;-73
2023/01/13 06:24:59;;;;;;;35.93;6.53;;;;;;;8.78;75.62;99955.28;5050362;28;20208;-72
2023/01/13 06:27:26;;;;;;;25.00;6.07;;;;;;;8.73;75.93;99957.63;5055042;28;20428;-71
2023/01/13 06:29:52;;;;;;;7.13;3.77;;;;;;;8.79;75.90;99956.13;5054362;28;20314;-73
2023/01/13 06:32:24;;;;;;;37.30;6.03;;;;;;;8.81;74.98;99959.41;5035152;28;20782;-71
2023/01/13 06:34:55;;;;;;;6.23;4.00;;;;;;;8.84;74.77;99957.25;5036341;28;20196;-71
2023/01/13 06:37:24;;;;;;;29.63;5.30;;;;;;;8.87;74.82;99964.03;5035494;28;20247;-71
2023/01/13 06:39:55;;;;;;;4.40;4.20;;;;;;;8.86;75.39;99962.38;5035382;28;20208;-72
2023/01/13 06:45:07;;;;;;;6.63;4.70;;;;;;;8.72;74.83;99963.94;5035988;28;20629;-73
2023/01/13 06:47:36;;;;;;;4.30;4.00;;;;;;;8.35;76.09;99958.47;5039522;28;20250;-72
2023/01/13 06:50:03;;;;;;;9.77;4.70;;;;;;;8.25;76.10;99959.66;5054944;28;20657;-73
2023/01/13 06:52:29;;;;;;;19.00;6.00;;;;;;;8.21;76.97;99956.50;5046897;28;20283;-72
2023/01/13 06:54:56;;;;;;;9.67;6.13;;;;;;;8.20;77.38;99959.28;5042426;28;20188;-72
2023/01/13 06:57:23;;;;;;;13.30;8.17;;;;;;;8.25;77.33;99967.59;5050728;28;20625;-72
2023/01/13 06:59:50;;;;;;;17.97;8.40;;;;;;;8.38;77.07;99973.97;5048321;28;20247;-72
2023/01/13 07:02:17;;;;;;;17.10;9.23;;;;;;;8.48;76.62;99965.84;5052049;28;20621;-73
2023/01/13 07:04:45;;;;;;;32.73;12.80;;;;;;;8.59;77.25;99976.06;5054693;28;20220;-74
2023/01/13 07:07:12;;;;;;;15.40;9.00;;;;;;;8.66;76.44;99985.00;5054746;28;20569;-73
2023/01/13 07:09:39;;;;;;;10.13;7.10;;;;;;;8.69;76.30;99981.97;5052949;28;20545;-78
2023/01/13 07:12:06;;;;;;;31.10;11.43;;;;;;;8.69;76.25;99981.97;5054515;28;20660;-72
2023/01/13 07:17:23;;;;;;;11.40;8.40;;;;;;;9.04;78.19;99986.78;5035110;28;20196;-71
2023/01/13 07:19:52;;;;;;;16.03;7.60;;;;;;;9.09;76.88;99969.38;5034139;28;20186;-71
2023/01/13 07:22:18;;;;;;;17.53;9.40;;;;;;;9.22;75.81;99984.69;5053088;28;20254;-73
2023/01/13 07:24:45;;;;;;;68.63;21.70;;;;;;;9.17;75.45;100003.78;5054094;28;20216;-72
2023/01/13 07:27:13;;;;;;;37.33;13.60;;;;;;;9.30;83.92;99960.78;5048692;28;20200;-71
2023/01/13 07:29:39;;;;;;;47.67;14.73;;;;;;;9.56;77.27;99987.78;5045212;28;20542;-70
2023/01/13 07:32:06;;;;;;;23.13;12.10;;;;;;;9.51;76.25;99990.09;5051359;28;20242;-69
2023/01/13 07:34:33;;;;;;;7.47;6.87;;;;;;;9.26;74.71;99986.81;5034387;28;20279;-75
2023/01/13 07:37:02;;;;;;;8.67;7.10;;;;;;;9.12;75.25;99994.69;5036232;28;20637;-79
2023/01/13 07:39:28;;;;;;;7.30;6.60;;;;;;;8.90;75.52;99985.69;5044403;28;20193;-77
2023/01/13 07:44:39;;;;;;;18.40;7.87;;;;;;;8.91;76.34;99997.13;5034456;28;20231;-70
2023/01/13 07:47:07;;;;;;;8.33;5.90;;;;;;;9.00;76.71;99990.78;5033794;28;20267;-69
2023/01/13 07:49:34;;;;;;;10.67;5.73;;;;;;;9.00;76.63;99996.06;5042092;28;20668;-68
2023/01/13 07:52:02;;;;;;;12.80;6.83;;;;;;;8.96;76.50;99992.13;5053954;28;20621;-69
2023/01/13 07:54:28;;;;;;;22.33;7.00;;;;;;;9.11;77.26;99993.84;5053355;28;20216;-69
2023/01/13 07:56:56;;;;;;;9.10;6.43;;;;;;;9.18;77.14;99999.28;5053377;28;20201;-71
2023/01/13 07:59:23;;;;;;;13.77;6.13;;;;;;;9.19;77.54;99996.47;5044104;28;20200;-68
2023/01/13 08:01:52;;;;;;;14.97;7.33;;;;;;;9.23;78.05;100002.25;5053391;28;20192;-71
2023/01/13 08:04:18;;;;;;;12.17;8.20;;;;;;;9.39;83.79;99994.19;5053886;28;20254;-73
2023/01/13 08:06:45;;;;;;;8.30;7.40;;;;;;;9.37;79.70;99993.53;5053755;28;20200;-71
2023/01/13 08:09:13;;;;;;;7.27;6.57;;;;;;;9.39;79.30;100002.16;5052180;28;20309;-73
2023/01/13 08:11:40;;;;;;;26.03;7.60;;;;;;;9.46;79.49;100014.53;5053616;28;20262;-72
2023/01/13 08:14:07;;;;;;;8.33;7.30;;;;;;;9.52;79.47;100008.50;5053122;28;20224;-72
2023/01/13 08:16:34;;;;;;;6.10;5.50;;;;;;;9.52;78.22;100015.66;5050988;28;20196;-71
2023/01/13 08:19:00;;;;;;;7.00;6.40;;;;;;;9.48;78.21;100014.34;5053125;28;20200;-74
2023/01/13 08:21:27;;;;;;;13.27;6.87;;;;;;;9.49;79.30;100014.19;5053002;28;20660;-70
2023/01/13 08:23:54;;;;;;;6.90;6.23;;;;;;;9.45;78.10;100006.75;5053291;28;20281;-68
2023/01/13 08:26:22;;;;;;;8.93;6.90;;;;;;;9.54;78.52;100018.94;5051845;28;20295;-68
2023/01/13 08:28:48;;;;;;;15.67;6.43;;;;;;;9.60;78.78;100023.56;5052665;28;20669;-68
2023/01/13 08:31:18;;;;;;;7.00;6.33;;;;;;;9.64;78.20;100023.00;5045598;28;20192;-73
2023/01/13 08:33:45;;;;;;;8.43;7.67;;;;;;;9.68;77.53;100023.50;5053005;28;20216;-72
2023/01/13 08:36:13;;;;;;;44.53;16.00;;;;;;;10.00;91.23;100007.28;5052865;28;20197;-73
2023/01/13 08:38:40;;;;;;;17.30;9.43;;;;;;;10.62;89.96;100012.16;5034894;28;20208;-72
2023/01/13 08:41:11;;;;;;;31.60;15.37;;;;;;;10.75;86.90;100014.16;5032926;28;20220;-74
2023/01/13 08:43:39;;;;;;;23.23;10.77;;;;;;;11.22;86.15;100017.19;5032707;28;20242;-74
2023/01/13 08:46:06;;;;;;;58.57;19.53;;;;;;;11.72;88.35;100008.34;5042673;28;20250;-73
2023/01/13 08:48:33;;;;;;;25.17;12.93;;;;;;;12.08;82.68;100015.22;5052901;28;20203;-73
2023/01/13 08:51:04;;;;;;;22.67;12.30;;;;;;;12.31;77.12;100020.31;5052073;28;20568;-74
2023/01/13 08:53:32;;;;;;;28.90;12.80;;;;;;;12.62;80.83;100016.19;5051833;28;20279;-73
2023/01/13 08:55:58;;;;;;;20.27;10.90;;;;;;;12.80;74.42;100031.69;5043115;28;20663;-71
2023/01/13 08:58:25;;;;;;;36.20;16.27;;;;;;;12.59;73.97;100032.59;5032957;28;20192;-73
2023/01/13 09:00:53;;;;;;;16.23;10.23;;;;;;;12.98;80.22;100019.50;5040371;28;20191;-72
2023/01/13 09:03:20;;;;;;;27.33;11.67;;;;;;;13.38;79.27;100021.28;5052277;28;20592;-73
2023/01/13 09:05:46;;;;;;;10.53;8.73;;;;;;;13.37;71.44;100025.00;5052710;28;20258;-77
2023/01/13 09:08:13;;;;;;;10.23;9.50;;;;;;;13.18;69.99;100030.25;5051744;28;20215;-73
2023/01/13 09:10:40;;;;;;;10.43;9.33;;;;;;;13.05;70.29;100023.03;5051534;28;20198;-76
2023/01/13 09:13:10;;;;;;;21.03;9.60;;;;;;;12.72;69.74;100029.16;5032080;28;20270;-74
2023/01/13 09:15:37;;;;;;;10.47;9.37;;;;;;;12.40;69.47;100022.63;5032366;28;20250;-73
2023/01/13 09:18:06;;;;;;;40.00;13.73;;;;;;;12.23;72.05;100013.28;5032153;28;20196;-72
2023/01/13 09:20:32;;;;;;;15.33;11.10;;;;;;;12.18;72.38;100017.53;5042737;28;20256;-73
2023/01/13 09:22:59;;;;;;;50.23;17.87;;;;;;;12.18;72.27;99999.72;5050693;28;20306;-73
2023/01/13 09:25:26;;;;;;;36.57;10.47;;;;;;;12.23;72.15;100007.97;5052445;28;20191;-72
2023/01/13 09:27:52;;;;;;;10.37;8.90;;;;;;;12.11;71.83;100014.00;5051210;28;20194;-72
2023/01/13 09:30:19;;;;;;;16.17;9.53;;;;;;;11.92;72.53;100004.84;5050986;28;20212;-71
2023/01/13 09:32:46;;;;;;;21.60;10.00;;;;;;;11.89;72.54;100004.41;5051788;28;20263;-70
2023/01/13 09:35:13;;;;;;;22.87;9.50;;;;;;;11.77;73.50;99990.78;5052090;28;20199;-72
2023/01/13 09:37:41;;;;;;;12.43;9.40;;;;;;;11.79;73.72;99999.41;5051377;28;20197;-71
2023/01/13 09:40:15;;;;;;;22.63;12.67;;;;;;;11.80;73.72;99995.72;5051630;28;20190;-74
2023/01/13 09:45:35;;;;;;;24.43;11.60;;;;;;;11.82;73.06;99988.38;5051590;28;20259;-67
2023/01/13 09:48:08;;;;;;;11.40;10.07;;;;;;;11.68;73.99;99991.91;5051209;28;20184;-68
2023/01/13 09:51:02;;;;;;;22.77;10.97;;;;;;;11.57;74.15;99984.44;5051538;28;20186;-69
2023/01/13 09:53:33;;;;;;;33.17;13.30;;;;;;;11.67;74.79;99979.63;5049537;28;20258;-71
2023/01/13 09:56:00;;;;;;;18.87;11.00;;;;;;;11.67;73.99;99984.97;5051908;28;20198;-69
2023/01/13 09:58:27;;;;;;;13.23;11.50;;;;;;;11.73;73.76;99988.69;5049513;28;20623;-69
2023/01/13 10:01:06;;;;;;;18.23;10.57;;;;;;;11.62;74.19;99979.41;5051707;28;20638;-70
2023/01/13 10:03:35;;;;;;;22.00;10.27;;;;;;;11.68;74.47;99980.47;5052399;28;20194;-69
2023/01/13 10:06:10;;;;;;;18.80;9.57;;;;;;;11.75;73.52;99974.19;5050129;28;20192;-69
2023/01/13 10:08:39;;;;;;;23.70;11.13;;;;;;;11.62;74.44;99970.56;5035383;28;20186;-68
2023/01/13 10:13:58;;;;;;;16.53;12.07;;;;;;;11.24;75.77;99967.31;5051697;28;20240;-72
2023/01/13 10:16:35;;;;;;;14.67;12.37;;;;;;;11.22;76.73;99958.69;5052239;28;20627;-69
2023/01/13 10:19:10;;;;;;;27.37;15.30;;;;;;;11.28;76.93;99957.97;5050355;28;20186;-69
2023/01/13 10:21:58;;;;;;;19.13;12.83;;;;;;;11.33;76.72;99944.91;5052147;28;20627;-69
2023/01/13 10:24:36;;;;;;;17.80;13.13;;;;;;;11.48;75.82;99953.66;5051796;28;20238;-71
2023/01/13 10:27:04;;;;;;;17.50;10.33;;;;;;;11.58;74.89;99943.50;5030620;28;20191;-69
2023/01/13 10:29:33;;;;;;;39.77;11.47;;;;;;;11.75;74.67;99947.56;5041937;28;20280;-68
2023/01/13 10:32:00;;;;;;;23.43;11.43;;;;;;;11.84;74.40;99935.75;5031152;28;20285;-70
2023/01/13 10:34:28;;;;;;;16.10;10.03;;;;;;;11.97;73.72;99933.19;5030319;28;20280;-69
2023/01/13 10:37:05;;;;;;;17.67;14.03;;;;;;;12.13;73.78;99942.75;5031720;28;20249;-69
2023/01/13 10:39:42;;;;;;;24.97;18.23;;;;;;;12.01;72.27;99944.28;5031422;28;20188;-68
2023/01/13 10:42:13;;;;;;;13.63;11.10;;;;;;;11.87;73.10;99931.88;5031380;28;20655;-69
2023/01/13 10:44:48;;;;;;;38.90;10.13;;;;;;;11.98;71.89;99934.84;5046761;28;20667;-68
2023/01/13 10:47:24;;;;;;;23.97;10.23;;;;;;;11.70;72.83;99928.69;5051225;28;20280;-67
2023/01/13 10:50:04;;;;;;;17.53;9.40;;;;;;;11.83;72.30;99920.81;5050721;28;20572;-68
2023/01/13 10:52:36;;;;;;;16.10;8.43;;;;;;;11.78;71.87;99923.25;5051248;28;20209;-68
2023/01/13 10:55:04;;;;;;;14.07;8.80;;;;;;;11.80;70.92;99925.72;5050772;28;20203;-66
2023/01/13 10:57:36;;;;;;;11.87;7.97;;;;;;;11.81;69.95;99928.19;5051304;28;20221;-72
2023/01/13 11:00:05;;;;;;;12.37;7.50;;;;;;;11.88;68.91;99931.69;5050322;28;20201;-74
2023/01/13 11:02:33;;;;;;;15.93;12.03;;;;;;;11.99;70.00;99925.84;5051415;28;20198;-72
2023/01/13 11:05:08;;;;;;;27.60;15.40;;;;;;;12.01;71.11;99923.81;5054354;28;20203;-73
2023/01/13 11:07:40;;;;;;;11.53;8.30;;;;;;;12.16;68.99;99924.53;5054569;28;20185;-73
2023/01/13 11:10:18;;;;;;;9.10;6.73;;;;;;;12.29;66.32;99927.25;5054422;28;20183;-74
2023/01/13 11:12:53;;;;;;;19.50;9.07;;;;;;;12.33;67.62;99917.84;5054428;28;20190;-74
2023/01/13 11:15:24;;;;;;;15.43;12.77;;;;;;;12.30;68.56;99910.28;5049127;28;20689;-72
2023/01/13 11:17:59;;;;;;;14.33;11.20;;;;;;;12.35;69.29;99915.00;5053485;28;20740;-74
2023/01/13 11:20:32;;;;;;;14.07;11.50;;;;;;;12.34;70.42;99908.88;5054487;28;20193;-76
2023/01/13 11:23:07;;;;;;;16.80;12.23;;;;;;;12.46;70.25;99907.25;5070616;28;20244;-75
2023/01/13 11:25:41;;;;;;;21.07;12.70;;;;;;;12.38;70.86;99907.47;5074797;28;20199;-74
2023/01/13 11:28:22;;;;;;;21.30;15.17;;;;;;;12.36;69.92;99904.16;5041253;28;20187;-75
2023/01/13 11:30:57;;;;;;;30.80;19.57;;;;;;;12.35;70.72;99886.53;5054159;28;20270;-75
2023/01/13 11:33:33;;;;;;;32.27;13.20;;;;;;;12.49;70.11;99901.53;5053821;28;20197;-77
2023/01/13 11:36:07;;;;;;;10.47;9.40;;;;;;;12.55;68.02;99911.44;5054274;28;20236;-74
2023/01/13 11:38:42;;;;;;;10.57;9.47;;;;;;;12.52;67.74;99905.66;5041769;28;20214;-75
2023/01/13 11:41:20;;;;;;;13.83;9.73;;;;;;;12.53;67.78;99910.78;5038771;28;20199;-75
2023/01/13 11:43:51;;;;;;;31.67;11.83;;;;;;;12.54;68.94;99899.09;5045173;28;20578;-74
2023/01/13 11:46:18;;;;;;;23.93;11.93;;;;;;;12.67;69.09;99904.50;5054042;28;20190;-73
2023/01/13 11:48:44;;;;;;;17.83;14.77;;;;;;;12.27;69.58;99902.69;5053549;28;20729;-74
2023/01/13 11:51:22;;;;;;;14.33;12.87;;;;;;;12.07;70.34;99899.06;5050570;28;20200;-73
2023/01/13 11:54:10;;;;;;;13.57;12.17;;;;;;;12.12;70.06;99898.50;5034605;28;20585;-73
2023/01/13 11:57:01;;;;;;;12.00;10.97;;;;;;;12.10;70.45;99912.00;5052435;28;20182;-71
2023/01/13 11:59:54;;;;;;;12.27;10.97;;;;;;;12.17;69.49;99907.50;5047102;28;20280;-73
2023/01/13 12:02:33;;;;;;;11.17;10.03;;;;;;;12.22;68.74;99902.44;5050050;28;20258;-73
2023/01/13 12:05:08;;;;;;;13.70;10.37;;;;;;;12.25;68.55;99903.91;5041901;28;20253;-72
2023/01/13 12:07:43;;;;;;;15.03;9.20;;;;;;;12.26;68.34;99898.38;5052007;28;20190;-74
2023/01/13 12:10:22;;;;;;;11.50;9.47;;;;;;;12.26;68.32;99901.03;5053361;28;20651;-74
2023/01/13 12:13:00;;;;;;;14.33;10.30;;;;;;;12.35;68.77;99904.34;5053549;28;20190;-73
2023/01/13 12:16:01;;;;;;;11.00;8.60;;;;;;;12.42;68.03;99897.22;5054199;28;20232;-73
2023/01/13 12:18:47;;;;;;;13.23;9.53;;;;;;;12.40;68.14;99894.75;5033691;28;20275;-73
2023/01/13 12:21:19;;;;;;;15.00;10.73;;;;;;;12.34;68.47;99898.22;5053055;28;20186;-74
2023/01/13 12:23:54;;;;;;;60.63;13.17;;;;;;;12.36;69.14;99890.84;5053738;28;20230;-74
2023/01/13 12:26:23;;;;;;;13.90;8.37;;;;;;;12.40;68.20;99888.59;5052734;28;20221;-70